sensor_id;sensor_type;location;lat;lon;timestamp;P1;durP1;ratioP1;P2;durP2;ratioP2
22415;SDS011;12204;50.600;4.608;2023-02-28T00:02:08;3.30;;;1.10;;
22415;SDS011;12204;50.600;4.608;2023-02-28T00:07:11;3.58;;;1.10;;
22415;SDS011;12204;50.600;4.608;2023-02-28T00:12:15;2.47;;;1.00;;
22415;SDS011;12204;50.600;4.608;2023-02-28T00:17:20;2.58;;;1.10;;
22415;SDS011;12204;50.600;4.608;2023-02-28T00:22:23;3.03;;;1.25;;
22415;SDS011;12204;50.600;4.608;2023-02-28T00:27:27;3.50;;;1.20;;
22415;SDS011;12204;50.600;4.608;2023-02-28T00:32:31;2.38;;;1.08;;
22415;SDS011;12204;50.600;4.608;2023-02-28T00:37:35;2.80;;;1.10;;
22415;SDS011;12204;50.600;4.608;2023-02-28T00:42:39;3.17;;;1.20;;
22415;SDS011;12204;50.600;4.608;2023-02-28T00:47:44;3.17;;;1.10;;
22415;SDS011;12204;50.600;4.608;2023-02-28T00:52:52;2.15;;;0.93;;
22415;SDS011;12204;50.600;4.608;2023-02-28T00:57:55;2.45;;;1.08;;
22415;SDS011;12204;50.600;4.608;2023-02-28T01:03:00;2.42;;;1.10;;
22415;SDS011;12204;50.600;4.608;2023-02-28T01:08:04;4.10;;;1.10;;
22415;SDS011;12204;50.600;4.608;2023-02-28T01:13:07;2.08;;;1.00;;
22415;SDS011;12204;50.600;4.608;2023-02-28T01:18:12;2.70;;;1.17;;
22415;SDS011;12204;50.600;4.608;2023-02-28T01:23:16;2.90;;;1.10;;
22415;SDS011;12204;50.600;4.608;2023-02-28T01:28:20;3.20;;;1.02;;
22415;SDS011;12204;50.600;4.608;2023-02-28T01:33:25;2.40;;;1.02;;
22415;SDS011;12204;50.600;4.608;2023-02-28T01:38:29;2.10;;;1.00;;
22415;SDS011;12204;50.600;4.608;2023-02-28T01:49:08;3.70;;;1.10;;
22415;SDS011;12204;50.600;4.608;2023-02-28T01:54:18;2.70;;;1.00;;
22415;SDS011;12204;50.600;4.608;2023-02-28T01:59:27;2.63;;;1.00;;
22415;SDS011;12204;50.600;4.608;2023-02-28T02:04:41;2.90;;;1.10;;
22415;SDS011;12204;50.600;4.608;2023-02-28T02:09:59;2.95;;;1.00;;
22415;SDS011;12204;50.600;4.608;2023-02-28T02:15:08;3.33;;;1.02;;
22415;SDS011;12204;50.600;4.608;2023-02-28T02:20:30;2.40;;;1.10;;
22415;SDS011;12204;50.600;4.608;2023-02-28T02:26:01;3.58;;;1.10;;
22415;SDS011;12204;50.600;4.608;2023-02-28T02:37:39;3.40;;;1.10;;
22415;SDS011;12204;50.600;4.608;2023-02-28T02:42:50;2.67;;;1.00;;
22415;SDS011;12204;50.600;4.608;2023-02-28T02:47:58;2.10;;;1.00;;
22415;SDS011;12204;50.600;4.608;2023-02-28T02:53:07;2.75;;;1.10;;
22415;SDS011;12204;50.600;4.608;2023-02-28T02:58:14;2.60;;;1.10;;
22415;SDS011;12204;50.600;4.608;2023-02-28T03:03:21;1.52;;;0.85;;
22415;SDS011;12204;50.600;4.608;2023-02-28T03:08:33;2.45;;;1.00;;
22415;SDS011;12204;50.600;4.608;2023-02-28T03:13:52;2.00;;;1.00;;
22415;SDS011;12204;50.600;4.608;2023-02-28T03:19:15;2.70;;;1.10;;
22415;SDS011;12204;50.600;4.608;2023-02-28T03:24:37;1.70;;;0.90;;
22415;SDS011;12204;50.600;4.608;2023-02-28T03:29:54;2.38;;;1.00;;
22415;SDS011;12204;50.600;4.608;2023-02-28T03:35:06;2.80;;;1.05;;
22415;SDS011;12204;50.600;4.608;2023-02-28T03:40:17;2.13;;;1.00;;
22415;SDS011;12204;50.600;4.608;2023-02-28T03:45:26;3.15;;;1.00;;
22415;SDS011;12204;50.600;4.608;2023-02-28T03:50:34;2.67;;;1.00;;
22415;SDS011;12204;50.600;4.608;2023-02-28T03:55:44;2.60;;;1.00;;
22415;SDS011;12204;50.600;4.608;2023-02-28T04:00:52;2.45;;;1.10;;
22415;SDS011;12204;50.600;4.608;2023-02-28T04:06:13;1.65;;;0.90;;
22415;SDS011;12204;50.600;4.608;2023-02-28T04:11:23;2.22;;;0.82;;
22415;SDS011;12204;50.600;4.608;2023-02-28T04:16:38;2.47;;;0.93;;
22415;SDS011;12204;50.600;4.608;2023-02-28T04:21:44;3.67;;;1.20;;
22415;SDS011;12204;50.600;4.608;2023-02-28T04:26:52;2.83;;;1.20;;
22415;SDS011;12204;50.600;4.608;2023-02-28T04:31:59;2.88;;;1.00;;
22415;SDS011;12204;50.600;4.608;2023-02-28T04:37:04;2.92;;;1.10;;
22415;SDS011;12204;50.600;4.608;2023-02-28T04:42:15;2.25;;;1.05;;
22415;SDS011;12204;50.600;4.608;2023-02-28T04:47:19;1.98;;;1.00;;
22415;SDS011;12204;50.600;4.608;2023-02-28T04:52:22;2.60;;;1.00;;
22415;SDS011;12204;50.600;4.608;2023-02-28T04:57:27;2.25;;;0.95;;
22415;SDS011;12204;50.600;4.608;2023-02-28T05:02:33;2.13;;;1.10;;
22415;SDS011;12204;50.600;4.608;2023-02-28T05:07:37;2.92;;;1.00;;
22415;SDS011;12204;50.600;4.608;2023-02-28T05:12:42;2.13;;;0.90;;
22415;SDS011;12204;50.600;4.608;2023-02-28T05:17:45;2.63;;;1.20;;
22415;SDS011;12204;50.600;4.608;2023-02-28T05:22:49;2.17;;;0.98;;
22415;SDS011;12204;50.600;4.608;2023-02-28T05:27:55;1.90;;;0.90;;
22415;SDS011;12204;50.600;4.608;2023-02-28T05:32:58;1.88;;;0.90;;
22415;SDS011;12204;50.600;4.608;2023-02-28T05:38:02;2.35;;;1.00;;
22415;SDS011;12204;50.600;4.608;2023-02-28T05:43:07;2.90;;;1.10;;
22415;SDS011;12204;50.600;4.608;2023-02-28T05:48:13;2.70;;;1.05;;
22415;SDS011;12204;50.600;4.608;2023-02-28T05:53:18;3.45;;;1.00;;
22415;SDS011;12204;50.600;4.608;2023-02-28T05:58:22;2.30;;;1.00;;
22415;SDS011;12204;50.600;4.608;2023-02-28T06:03:30;3.80;;;1.10;;
22415;SDS011;12204;50.600;4.608;2023-02-28T06:08:33;2.85;;;1.00;;
22415;SDS011;12204;50.600;4.608;2023-02-28T06:13:38;2.67;;;1.08;;
22415;SDS011;12204;50.600;4.608;2023-02-28T06:18:42;1.95;;;0.95;;
22415;SDS011;12204;50.600;4.608;2023-02-28T06:23:45;2.08;;;1.00;;
22415;SDS011;12204;50.600;4.608;2023-02-28T06:28:50;2.22;;;1.02;;
22415;SDS011;12204;50.600;4.608;2023-02-28T06:33:53;3.40;;;1.10;;
22415;SDS011;12204;50.600;4.608;2023-02-28T06:38:57;2.92;;;1.17;;
22415;SDS011;12204;50.600;4.608;2023-02-28T06:44:02;2.72;;;1.10;;
22415;SDS011;12204;50.600;4.608;2023-02-28T06:49:07;2.65;;;1.10;;
22415;SDS011;12204;50.600;4.608;2023-02-28T06:54:11;3.70;;;1.25;;
22415;SDS011;12204;50.600;4.608;2023-02-28T06:59:16;3.13;;;1.13;;
22415;SDS011;12204;50.600;4.608;2023-02-28T07:04:19;2.70;;;1.10;;
22415;SDS011;12204;50.600;4.608;2023-02-28T07:09:23;2.83;;;1.10;;
22415;SDS011;12204;50.600;4.608;2023-02-28T07:14:32;2.63;;;1.15;;
22415;SDS011;12204;50.600;4.608;2023-02-28T07:19:36;4.60;;;1.48;;
22415;SDS011;12204;50.600;4.608;2023-02-28T07:24:39;3.33;;;1.20;;
22415;SDS011;12204;50.600;4.608;2023-02-28T07:29:44;3.72;;;1.30;;
22415;SDS011;12204;50.600;4.608;2023-02-28T07:34:48;2.92;;;1.20;;
22415;SDS011;12204;50.600;4.608;2023-02-28T07:39:51;3.67;;;1.15;;
22415;SDS011;12204;50.600;4.608;2023-02-28T07:44:56;3.30;;;1.30;;
22415;SDS011;12204;50.600;4.608;2023-02-28T07:50:00;3.67;;;1.35;;
22415;SDS011;12204;50.600;4.608;2023-02-28T07:55:04;4.18;;;1.52;;
22415;SDS011;12204;50.600;4.608;2023-02-28T08:00:12;3.33;;;1.30;;
22415;SDS011;12204;50.600;4.608;2023-02-28T08:05:17;4.18;;;1.27;;
22415;SDS011;12204;50.600;4.608;2023-02-28T08:10:22;3.53;;;1.30;;
22415;SDS011;12204;50.600;4.608;2023-02-28T08:15:27;4.82;;;1.40;;
22415;SDS011;12204;50.600;4.608;2023-02-28T08:20:31;4.65;;;1.40;;
22415;SDS011;12204;50.600;4.608;2023-02-28T08:25:34;4.25;;;1.40;;
22415;SDS011;12204;50.600;4.608;2023-02-28T08:30:39;4.90;;;1.50;;
22415;SDS011;12204;50.600;4.608;2023-02-28T08:35:42;3.60;;;1.40;;
22415;SDS011;12204;50.600;4.608;2023-02-28T08:40:46;4.20;;;1.40;;
22415;SDS011;12204;50.600;4.608;2023-02-28T08:45:52;3.25;;;1.33;;
22415;SDS011;12204;50.600;4.608;2023-02-28T08:50:58;4.32;;;1.50;;
22415;SDS011;12204;50.600;4.608;2023-02-28T08:56:09;3.38;;;1.42;;
22415;SDS011;12204;50.600;4.608;2023-02-28T09:01:19;3.85;;;1.40;;
22415;SDS011;12204;50.600;4.608;2023-02-28T09:06:26;3.67;;;1.33;;
22415;SDS011;12204;50.600;4.608;2023-02-28T09:11:30;3.83;;;1.48;;
22415;SDS011;12204;50.600;4.608;2023-02-28T09:16:35;3.78;;;1.40;;
22415;SDS011;12204;50.600;4.608;2023-02-28T09:21:39;4.07;;;1.40;;
22415;SDS011;12204;50.600;4.608;2023-02-28T09:26:42;3.80;;;1.40;;
22415;SDS011;12204;50.600;4.608;2023-02-28T09:32:06;3.28;;;1.33;;
22415;SDS011;12204;50.600;4.608;2023-02-28T09:37:09;3.58;;;1.40;;
22415;SDS011;12204;50.600;4.608;2023-02-28T09:42:17;3.30;;;1.30;;
22415;SDS011;12204;50.600;4.608;2023-02-28T09:47:31;3.50;;;1.50;;
22415;SDS011;12204;50.600;4.608;2023-02-28T09:52:39;4.88;;;1.48;;
22415;SDS011;12204;50.600;4.608;2023-02-28T09:57:42;3.45;;;1.30;;
22415;SDS011;12204;50.600;4.608;2023-02-28T10:02:51;3.15;;;1.30;;
22415;SDS011;12204;50.600;4.608;2023-02-28T10:08:09;3.60;;;1.30;;
22415;SDS011;12204;50.600;4.608;2023-02-28T10:13:19;3.00;;;1.30;;
22415;SDS011;12204;50.600;4.608;2023-02-28T10:18:35;3.65;;;1.40;;
22415;SDS011;12204;50.600;4.608;2023-02-28T10:23:46;4.50;;;1.40;;
22415;SDS011;12204;50.600;4.608;2023-02-28T10:28:51;3.70;;;1.30;;
22415;SDS011;12204;50.600;4.608;2023-02-28T10:33:57;3.78;;;1.20;;
22415;SDS011;12204;50.600;4.608;2023-02-28T10:39:00;3.97;;;1.33;;
22415;SDS011;12204;50.600;4.608;2023-02-28T10:44:12;4.57;;;1.50;;
22415;SDS011;12204;50.600;4.608;2023-02-28T10:49:23;2.50;;;1.07;;
22415;SDS011;12204;50.600;4.608;2023-02-28T10:54:31;3.38;;;1.38;;
22415;SDS011;12204;50.600;4.608;2023-02-28T10:59:39;2.78;;;1.20;;
22415;SDS011;12204;50.600;4.608;2023-02-28T11:04:43;3.45;;;1.40;;
22415;SDS011;12204;50.600;4.608;2023-02-28T11:09:49;3.75;;;1.20;;
22415;SDS011;12204;50.600;4.608;2023-02-28T11:14:55;3.25;;;1.25;;
22415;SDS011;12204;50.600;4.608;2023-02-28T11:20:05;3.85;;;1.27;;
22415;SDS011;12204;50.600;4.608;2023-02-28T11:25:24;3.35;;;1.20;;
22415;SDS011;12204;50.600;4.608;2023-02-28T11:30:34;3.42;;;1.10;;
22415;SDS011;12204;50.600;4.608;2023-02-28T11:35:41;3.55;;;1.13;;
22415;SDS011;12204;50.600;4.608;2023-02-28T11:40:46;3.33;;;1.30;;
22415;SDS011;12204;50.600;4.608;2023-02-28T11:46:12;3.70;;;1.20;;
22415;SDS011;12204;50.600;4.608;2023-02-28T11:51:31;2.97;;;1.20;;
22415;SDS011;12204;50.600;4.608;2023-02-28T11:56:38;3.50;;;1.30;;
22415;SDS011;12204;50.600;4.608;2023-02-28T12:01:54;3.05;;;1.20;;
22415;SDS011;12204;50.600;4.608;2023-02-28T12:07:21;4.20;;;1.30;;
22415;SDS011;12204;50.600;4.608;2023-02-28T12:12:38;2.53;;;1.10;;
22415;SDS011;12204;50.600;4.608;2023-02-28T12:18:01;3.78;;;1.17;;
22415;SDS011;12204;50.600;4.608;2023-02-28T12:23:24;2.53;;;1.00;;
22415;SDS011;12204;50.600;4.608;2023-02-28T12:28:54;2.47;;;1.00;;
22415;SDS011;12204;50.600;4.608;2023-02-28T12:34:08;4.97;;;1.30;;
22415;SDS011;12204;50.600;4.608;2023-02-28T12:39:20;2.53;;;1.08;;
22415;SDS011;12204;50.600;4.608;2023-02-28T12:44:40;2.65;;;1.00;;
22415;SDS011;12204;50.600;4.608;2023-02-28T12:49:52;2.85;;;1.10;;
22415;SDS011;12204;50.600;4.608;2023-02-28T12:55:03;2.67;;;1.10;;
22415;SDS011;12204;50.600;4.608;2023-02-28T13:00:14;3.72;;;1.13;;
22415;SDS011;12204;50.600;4.608;2023-02-28T13:05:26;3.57;;;1.23;;
22415;SDS011;12204;50.600;4.608;2023-02-28T13:11:24;4.82;;;1.25;;
22415;SDS011;12204;50.600;4.608;2023-02-28T13:16:48;3.15;;;1.10;;
22415;SDS011;12204;50.600;4.608;2023-02-28T13:22:04;3.35;;;1.00;;
22415;SDS011;12204;50.600;4.608;2023-02-28T13:27:35;2.17;;;1.00;;
22415;SDS011;12204;50.600;4.608;2023-02-28T13:32:41;3.10;;;1.10;;
22415;SDS011;12204;50.600;4.608;2023-02-28T13:37:45;3.22;;;1.20;;
22415;SDS011;12204;50.600;4.608;2023-02-28T13:42:54;1.90;;;1.00;;
22415;SDS011;12204;50.600;4.608;2023-02-28T13:47:58;2.60;;;0.98;;
22415;SDS011;12204;50.600;4.608;2023-02-28T13:59:00;3.00;;;1.00;;
22415;SDS011;12204;50.600;4.608;2023-02-28T14:04:34;3.63;;;0.98;;
22415;SDS011;12204;50.600;4.608;2023-02-28T14:10:28;3.03;;;1.00;;
22415;SDS011;12204;50.600;4.608;2023-02-28T14:15:40;4.63;;;0.90;;
22415;SDS011;12204;50.600;4.608;2023-02-28T14:20:58;3.83;;;0.90;;
22415;SDS011;12204;50.600;4.608;2023-02-28T14:26:19;2.53;;;0.93;;
22415;SDS011;12204;50.600;4.608;2023-02-28T14:31:53;3.60;;;0.98;;
22415;SDS011;12204;50.600;4.608;2023-02-28T14:37:05;3.33;;;1.02;;
22415;SDS011;12204;50.600;4.608;2023-02-28T14:42:29;2.58;;;0.93;;
22415;SDS011;12204;50.600;4.608;2023-02-28T14:47:38;3.47;;;0.90;;
22415;SDS011;12204;50.600;4.608;2023-02-28T14:52:42;2.72;;;0.90;;
22415;SDS011;12204;50.600;4.608;2023-02-28T14:57:50;3.47;;;1.00;;
22415;SDS011;12204;50.600;4.608;2023-02-28T15:02:58;2.10;;;0.93;;
22415;SDS011;12204;50.600;4.608;2023-02-28T15:08:05;4.50;;;1.20;;
22415;SDS011;12204;50.600;4.608;2023-02-28T15:13:15;3.40;;;0.98;;
22415;SDS011;12204;50.600;4.608;2023-02-28T15:18:23;2.28;;;0.90;;
22415;SDS011;12204;50.600;4.608;2023-02-28T15:23:35;3.47;;;0.93;;
22415;SDS011;12204;50.600;4.608;2023-02-28T15:28:39;1.55;;;0.90;;
22415;SDS011;12204;50.600;4.608;2023-02-28T15:33:52;3.08;;;0.93;;
22415;SDS011;12204;50.600;4.608;2023-02-28T15:38:59;3.63;;;1.00;;
22415;SDS011;12204;50.600;4.608;2023-02-28T15:44:17;3.47;;;1.00;;
22415;SDS011;12204;50.600;4.608;2023-02-28T15:49:40;2.42;;;1.00;;
22415;SDS011;12204;50.600;4.608;2023-02-28T15:54:51;2.83;;;0.90;;
22415;SDS011;12204;50.600;4.608;2023-02-28T15:59:55;3.58;;;1.10;;
22415;SDS011;12204;50.600;4.608;2023-02-28T16:05:20;3.30;;;0.93;;
22415;SDS011;12204;50.600;4.608;2023-02-28T16:10:31;3.15;;;0.90;;
22415;SDS011;12204;50.600;4.608;2023-02-28T16:15:36;2.28;;;0.80;;
22415;SDS011;12204;50.600;4.608;2023-02-28T16:20:46;3.45;;;0.90;;
22415;SDS011;12204;50.600;4.608;2023-02-28T16:25:50;2.10;;;0.85;;
22415;SDS011;12204;50.600;4.608;2023-02-28T16:30:53;3.20;;;0.90;;
22415;SDS011;12204;50.600;4.608;2023-02-28T16:35:58;2.70;;;0.90;;
22415;SDS011;12204;50.600;4.608;2023-02-28T16:41:03;2.65;;;1.00;;
22415;SDS011;12204;50.600;4.608;2023-02-28T16:46:08;3.22;;;0.93;;
22415;SDS011;12204;50.600;4.608;2023-02-28T16:51:15;2.78;;;0.80;;
22415;SDS011;12204;50.600;4.608;2023-02-28T16:56:20;2.40;;;0.90;;
22415;SDS011;12204;50.600;4.608;2023-02-28T17:01:25;2.88;;;1.00;;
22415;SDS011;12204;50.600;4.608;2023-02-28T17:06:32;2.85;;;0.90;;
22415;SDS011;12204;50.600;4.608;2023-02-28T17:11:36;2.00;;;0.90;;
22415;SDS011;12204;50.600;4.608;2023-02-28T17:16:40;2.30;;;0.90;;
22415;SDS011;12204;50.600;4.608;2023-02-28T17:21:45;3.28;;;1.00;;
22415;SDS011;12204;50.600;4.608;2023-02-28T17:26:49;3.15;;;0.88;;
22415;SDS011;12204;50.600;4.608;2023-02-28T17:31:52;2.85;;;1.10;;
22415;SDS011;12204;50.600;4.608;2023-02-28T17:42:05;3.80;;;1.25;;
22415;SDS011;12204;50.600;4.608;2023-02-28T17:47:09;3.28;;;1.10;;
22415;SDS011;12204;50.600;4.608;2023-02-28T17:52:16;3.95;;;1.23;;
22415;SDS011;12204;50.600;4.608;2023-02-28T17:57:19;5.22;;;1.30;;
22415;SDS011;12204;50.600;4.608;2023-02-28T18:02:23;4.65;;;1.30;;
22415;SDS011;12204;50.600;4.608;2023-02-28T18:07:29;4.43;;;1.33;;
22415;SDS011;12204;50.600;4.608;2023-02-28T18:12:33;4.35;;;1.40;;
22415;SDS011;12204;50.600;4.608;2023-02-28T18:17:37;4.60;;;1.50;;
22415;SDS011;12204;50.600;4.608;2023-02-28T18:22:42;7.85;;;1.90;;
22415;SDS011;12204;50.600;4.608;2023-02-28T18:27:45;5.72;;;1.52;;
22415;SDS011;12204;50.600;4.608;2023-02-28T18:32:58;4.88;;;1.73;;
22415;SDS011;12204;50.600;4.608;2023-02-28T18:38:06;5.47;;;1.98;;
22415;SDS011;12204;50.600;4.608;2023-02-28T18:43:15;5.88;;;1.92;;
22415;SDS011;12204;50.600;4.608;2023-02-28T18:48:19;5.32;;;2.10;;
22415;SDS011;12204;50.600;4.608;2023-02-28T18:53:24;6.13;;;2.20;;
22415;SDS011;12204;50.600;4.608;2023-02-28T18:58:29;7.15;;;2.50;;
22415;SDS011;12204;50.600;4.608;2023-02-28T19:03:33;7.57;;;2.30;;
22415;SDS011;12204;50.600;4.608;2023-02-28T19:08:38;6.53;;;2.47;;
22415;SDS011;12204;50.600;4.608;2023-02-28T19:13:42;6.88;;;2.38;;
22415;SDS011;12204;50.600;4.608;2023-02-28T19:18:47;7.15;;;2.70;;
22415;SDS011;12204;50.600;4.608;2023-02-28T19:23:52;6.90;;;2.67;;
22415;SDS011;12204;50.600;4.608;2023-02-28T19:28:55;7.10;;;2.85;;
22415;SDS011;12204;50.600;4.608;2023-02-28T19:33:59;8.77;;;2.70;;
22415;SDS011;12204;50.600;4.608;2023-02-28T19:39:05;6.93;;;2.80;;
22415;SDS011;12204;50.600;4.608;2023-02-28T19:44:08;8.07;;;2.75;;
22415;SDS011;12204;50.600;4.608;2023-02-28T19:49:12;7.10;;;2.75;;
22415;SDS011;12204;50.600;4.608;2023-02-28T19:54:17;8.52;;;3.03;;
22415;SDS011;12204;50.600;4.608;2023-02-28T19:59:20;9.20;;;3.17;;
22415;SDS011;12204;50.600;4.608;2023-02-28T20:04:38;6.85;;;3.15;;
22415;SDS011;12204;50.600;4.608;2023-02-28T20:09:44;7.43;;;3.10;;
22415;SDS011;12204;50.600;4.608;2023-02-28T20:14:47;7.25;;;3.00;;
22415;SDS011;12204;50.600;4.608;2023-02-28T20:19:51;8.90;;;3.30;;
22415;SDS011;12204;50.600;4.608;2023-02-28T20:24:56;8.80;;;3.53;;
22415;SDS011;12204;50.600;4.608;2023-02-28T20:29:59;8.07;;;3.40;;
22415;SDS011;12204;50.600;4.608;2023-02-28T20:35:03;10.20;;;3.42;;
22415;SDS011;12204;50.600;4.608;2023-02-28T20:40:11;8.25;;;3.10;;
22415;SDS011;12204;50.600;4.608;2023-02-28T20:45:15;8.17;;;3.40;;
22415;SDS011;12204;50.600;4.608;2023-02-28T20:50:19;9.10;;;3.60;;
22415;SDS011;12204;50.600;4.608;2023-02-28T20:55:24;9.68;;;3.97;;
22415;SDS011;12204;50.600;4.608;2023-02-28T21:00:27;8.32;;;3.60;;
22415;SDS011;12204;50.600;4.608;2023-02-28T21:05:31;9.10;;;3.78;;
22415;SDS011;12204;50.600;4.608;2023-02-28T21:10:35;8.60;;;3.75;;
22415;SDS011;12204;50.600;4.608;2023-02-28T21:15:40;9.80;;;4.03;;
22415;SDS011;12204;50.600;4.608;2023-02-28T21:20:43;8.80;;;3.80;;
22415;SDS011;12204;50.600;4.608;2023-02-28T21:25:48;9.82;;;3.63;;
22415;SDS011;12204;50.600;4.608;2023-02-28T21:30:52;8.73;;;3.90;;
22415;SDS011;12204;50.600;4.608;2023-02-28T21:35:59;8.85;;;3.90;;
22415;SDS011;12204;50.600;4.608;2023-02-28T21:41:06;10.57;;;4.10;;
22415;SDS011;12204;50.600;4.608;2023-02-28T21:46:14;9.85;;;3.80;;
22415;SDS011;12204;50.600;4.608;2023-02-28T21:51:21;10.50;;;4.03;;
22415;SDS011;12204;50.600;4.608;2023-02-28T21:56:28;10.90;;;4.60;;
22415;SDS011;12204;50.600;4.608;2023-02-28T22:01:35;8.50;;;4.10;;
22415;SDS011;12204;50.600;4.608;2023-02-28T22:06:40;8.95;;;3.88;;
22415;SDS011;12204;50.600;4.608;2023-02-28T22:11:48;10.63;;;4.22;;
22415;SDS011;12204;50.600;4.608;2023-02-28T22:16:52;10.07;;;4.15;;
22415;SDS011;12204;50.600;4.608;2023-02-28T22:21:57;10.27;;;4.50;;
22415;SDS011;12204;50.600;4.608;2023-02-28T22:27:02;10.77;;;4.30;;
22415;SDS011;12204;50.600;4.608;2023-02-28T22:32:06;9.30;;;4.25;;
22415;SDS011;12204;50.600;4.608;2023-02-28T22:37:11;9.63;;;4.13;;
22415;SDS011;12204;50.600;4.608;2023-02-28T22:42:16;10.15;;;4.00;;
22415;SDS011;12204;50.600;4.608;2023-02-28T22:47:19;10.70;;;4.32;;
22415;SDS011;12204;50.600;4.608;2023-02-28T22:52:26;10.90;;;4.40;;
22415;SDS011;12204;50.600;4.608;2023-02-28T22:57:31;11.70;;;4.32;;
22415;SDS011;12204;50.600;4.608;2023-02-28T23:02:34;9.63;;;4.45;;
22415;SDS011;12204;50.600;4.608;2023-02-28T23:07:39;13.20;;;4.88;;
22415;SDS011;12204;50.600;4.608;2023-02-28T23:12:45;10.15;;;4.70;;
22415;SDS011;12204;50.600;4.608;2023-02-28T23:17:54;12.48;;;4.50;;
22415;SDS011;12204;50.600;4.608;2023-02-28T23:22:57;10.80;;;4.47;;
22415;SDS011;12204;50.600;4.608;2023-02-28T23:28:02;10.68;;;4.63;;
22415;SDS011;12204;50.600;4.608;2023-02-28T23:33:06;9.07;;;3.95;;
22415;SDS011;12204;50.600;4.608;2023-02-28T23:38:10;10.68;;;4.70;;
22415;SDS011;12204;50.600;4.608;2023-02-28T23:43:15;10.02;;;4.50;;
22415;SDS011;12204;50.600;4.608;2023-02-28T23:48:19;10.80;;;4.78;;
22415;SDS011;12204;50.600;4.608;2023-02-28T23:53:23;11.65;;;4.57;;
22415;SDS011;12204;50.600;4.608;2023-02-28T23:58:28;10.07;;;4.18;;
